Time;durP1;ratioP1;P1;durP2;ratioP2;P2;SDS_P1;SDS_P2;PMS_P1;PMS_P2;Temp;Humidity;BMP_temperature;BMP_pressure;BME280_temperature;BME280_humidity;BME280_pressure;Samples;Min_cycle;Max_cycle;Signal;HPM_P1;HPM_P2
2024/02/10 00:01:12;;;;;;;14.80;10.10;;;;;;;10.91;100.00;97904.14;179364;1252;46054;-81
2024/02/10 00:05:25;;;;;;;18.60;10.20;;;;;;;10.93;100.00;97904.77;180077;1252;44178;-81
2024/02/10 00:09:28;;;;;;;15.80;10.30;;;;;;;10.99;100.00;97905.83;179190;1254;44928;-84
2024/02/10 00:13:33;;;;;;;19.00;9.80;;;;;;;10.98;100.00;97900.06;178699;1254;46079;-84
2024/02/10 00:17:41;;;;;;;14.70;10.00;;;;;;;10.95;100.00;97900.48;178044;1253;58402;-82
2024/02/10 00:21:45;;;;;;;22.80;9.90;;;;;;;10.97;100.00;97903.20;178499;1256;46236;-84
2024/02/10 00:25:48;;;;;;;26.40;12.50;;;;;;;11.00;100.00;97903.49;178593;1253;46119;-85
2024/02/10 00:29:52;;;;;;;24.40;11.50;;;;;;;10.99;100.00;97904.95;178399;1256;45929;-84
2024/02/10 00:33:57;;;;;;;28.40;11.70;;;;;;;10.94;100.00;97901.95;178495;1252;45988;-84
2024/02/10 00:38:01;;;;;;;15.50;10.40;;;;;;;10.98;100.00;97906.00;179078;1256;59506;-85
2024/02/10 00:42:04;;;;;;;19.10;12.40;;;;;;;11.05;100.00;97910.88;178342;1254;46162;-85
2024/02/10 00:46:20;;;;;;;19.40;11.20;;;;;;;11.10;100.00;97911.79;178585;1253;45874;-84
2024/02/10 00:50:23;;;;;;;20.90;11.60;;;;;;;11.10;100.00;97919.23;178181;1254;45996;-83
2024/02/10 00:54:29;;;;;;;17.00;11.80;;;;;;;11.03;100.00;97921.86;178193;1252;235047;-83
2024/02/10 00:58:32;;;;;;;27.80;12.10;;;;;;;10.93;100.00;97923.17;179784;1251;59403;-84
2024/02/10 01:02:35;;;;;;;24.70;12.40;;;;;;;10.76;100.00;97921.67;179556;1255;46034;-83
2024/02/10 01:06:40;;;;;;;18.30;11.90;;;;;;;10.56;100.00;97918.13;178684;1254;46170;-83
2024/02/10 01:10:44;;;;;;;19.10;12.50;;;;;;;10.47;100.00;97918.10;178876;1253;46120;-85
2024/02/10 01:14:47;;;;;;;21.70;13.90;;;;;;;10.48;100.00;97915.20;178769;1254;45977;-83
2024/02/10 01:18:51;;;;;;;18.70;11.40;;;;;;;10.50;100.00;97916.69;178152;1256;58093;-84
2024/02/10 01:22:57;;;;;;;26.10;17.70;;;;;;;10.33;100.00;97918.19;178270;1253;46076;-84
2024/02/10 01:27:00;;;;;;;;;;;;;;;10.20;100.00;97916.11;178690;1254;46095;-84
2024/02/10 01:31:08;;;;;;;33.30;17.00;;;;;;;10.13;100.00;97916.16;178331;1255;45784;-83
2024/02/10 01:35:11;;;;;;;31.90;15.50;;;;;;;10.07;100.00;97915.48;178460;1256;46016;-84
2024/02/10 01:39:14;;;;;;;18.40;12.80;;;;;;;10.07;100.00;97915.11;178332;1253;57976;-85
2024/02/10 01:43:18;;;;;;;17.80;12.60;;;;;;;10.09;100.00;97914.94;178116;1258;46118;-86
2024/02/10 01:47:21;;;;;;;29.50;13.80;;;;;;;10.10;100.00;97913.92;179412;1258;45997;-82
2024/02/10 01:51:24;;;;;;;16.80;10.00;;;;;;;10.13;100.00;97915.49;178675;1254;46043;-84
2024/02/10 01:55:29;;;;;;;25.90;12.80;;;;;;;10.15;100.00;97917.73;178277;1253;46132;-85
2024/02/10 01:59:38;;;;;;;17.60;12.60;;;;;;;10.15;100.00;97923.61;178218;1259;59393;-86
2024/02/10 02:03:46;;;;;;;23.10;14.30;;;;;;;10.15;100.00;97920.55;178369;1255;44857;-86
2024/02/10 02:07:51;;;;;;;20.00;12.90;;;;;;;10.18;100.00;97926.11;178128;1254;46022;-85
2024/02/10 02:11:54;;;;;;;23.70;14.00;;;;;;;10.22;100.00;97924.02;177760;1254;46125;-84
2024/02/10 02:15:58;;;;;;;21.80;13.10;;;;;;;10.23;100.00;97931.30;177775;1255;46125;-86
2024/02/10 02:20:02;;;;;;;26.30;14.90;;;;;;;10.24;100.00;97929.97;178352;1254;58018;-85
2024/02/10 02:24:06;;;;;;;21.40;12.80;;;;;;;10.24;100.00;97930.30;178921;1254;46455;-85
2024/02/10 02:28:09;;;;;;;27.50;13.90;;;;;;;10.28;100.00;97934.30;178275;1254;46149;-84
2024/02/10 02:32:13;;;;;;;19.00;13.20;;;;;;;10.29;100.00;97934.37;178371;1253;46081;-85
2024/02/10 02:36:18;;;;;;;33.40;17.10;;;;;;;10.34;100.00;97938.20;178345;1260;46086;-86
2024/02/10 02:40:22;;;;;;;25.50;14.70;;;;;;;10.36;100.00;97937.11;178760;1254;59543;-88
2024/02/10 02:44:28;;;;;;;18.50;14.00;;;;;;;10.35;100.00;97941.85;179066;1256;45963;-86
2024/02/10 02:48:31;;;;;;;;;;;;;;;10.35;100.00;97940.80;178498;1255;46651;-85
2024/02/10 02:52:38;;;;;;;22.60;17.00;;;;;;;10.31;100.00;97944.20;178341;1254;45894;-87
2024/02/10 02:56:45;;;;;;;33.00;19.30;;;;;;;10.27;100.00;97944.11;178339;1254;45987;-85
2024/02/10 03:00:48;;;;;;;;;;;;;;;10.25;100.00;97942.94;178099;1254;58204;-85
2024/02/10 03:04:51;;;;;;;38.70;24.10;;;;;;;10.27;100.00;97947.38;178281;1254;45871;-84
2024/02/10 03:08:54;;;;;;;34.50;22.60;;;;;;;10.30;100.00;97946.96;178531;1256;46080;-85
2024/02/10 03:12:58;;;;;;;38.80;23.50;;;;;;;10.37;100.00;97950.40;178802;1254;45922;-88
2024/02/10 03:17:06;;;;;;;38.40;21.30;;;;;;;10.47;100.00;97947.04;178789;1256;46123;-88
2024/02/10 03:21:11;;;;;;;32.30;22.30;;;;;;;10.44;100.00;97951.36;178518;1252;60997;-89
2024/02/10 03:25:15;;;;;;;26.50;19.90;;;;;;;10.29;100.00;97950.10;178967;1253;46032;-87
2024/02/10 03:29:19;;;;;;;25.70;18.30;;;;;;;10.22;100.00;97949.67;178993;1254;46013;-87
2024/02/10 03:33:23;;;;;;;23.90;14.20;;;;;;;10.11;100.00;97952.00;178978;1255;46079;-87
2024/02/10 03:37:28;;;;;;;29.40;17.50;;;;;;;10.06;100.00;97959.20;179147;1253;46037;-89
2024/02/10 03:41:32;;;;;;;21.60;14.50;;;;;;;10.08;100.00;97960.54;179540;1255;59574;-86
2024/02/10 03:45:37;;;;;;;21.60;15.10;;;;;;;10.08;100.00;97967.30;178755;1256;46219;-84
2024/02/10 03:49:40;;;;;;;28.70;15.90;;;;;;;10.01;100.00;97962.78;178177;1256;45993;-85
2024/02/10 03:53:43;;;;;;;22.40;15.90;;;;;;;9.94;100.00;97962.17;178277;1254;45999;-86
2024/02/10 03:57:48;;;;;;;26.70;15.50;;;;;;;9.90;100.00;97964.97;178711;1254;45993;-87
2024/02/10 04:01:54;;;;;;;25.90;14.80;;;;;;;9.85;100.00;97957.64;178829;1254;59530;-86
2024/02/10 04:05:58;;;;;;;21.50;15.00;;;;;;;9.79;100.00;97955.85;178365;1254;45907;-85
2024/02/10 04:10:01;;;;;;;23.70;17.00;;;;;;;9.77;100.00;97947.61;178357;1257;46212;-86
2024/02/10 04:14:04;;;;;;;21.10;15.40;;;;;;;9.72;100.00;97950.96;178970;1255;46073;-85
2024/02/10 04:18:08;;;;;;;20.90;14.10;;;;;;;9.68;100.00;97952.03;178919;1252;46069;-87
2024/02/10 04:22:13;;;;;;;21.60;14.80;;;;;;;9.64;100.00;97947.67;178694;1254;56975;-86
2024/02/10 04:26:17;;;;;;;19.60;15.50;;;;;;;9.64;100.00;97944.33;178748;1253;46082;-86
2024/02/10 04:30:20;;;;;;;22.30;13.60;;;;;;;9.59;100.00;97945.23;178358;1254;45986;-85
2024/02/10 04:34:23;;;;;;;17.90;13.40;;;;;;;9.46;100.00;97942.30;178355;1253;45957;-86
2024/02/10 04:38:27;;;;;;;22.70;13.60;;;;;;;9.42;100.00;97941.35;178405;1253;45989;-87
2024/02/10 04:42:31;;;;;;;23.90;16.40;;;;;;;9.41;100.00;97933.79;178374;1254;59584;-86
2024/02/10 04:46:34;;;;;;;17.60;13.80;;;;;;;9.46;100.00;97927.14;179473;1254;44724;-84
2024/02/10 04:50:38;;;;;;;19.90;15.30;;;;;;;9.50;100.00;97925.91;178232;1256;46092;-86
2024/02/10 04:54:42;;;;;;;19.60;15.60;;;;;;;9.53;100.00;97922.05;178697;1256;45964;-85
2024/02/10 04:58:49;;;;;;;21.70;14.70;;;;;;;9.51;100.00;97914.46;178672;1252;46031;-84
2024/02/10 05:02:53;;;;;;;19.10;13.70;;;;;;;9.52;100.00;97918.24;179286;1254;58231;-86
2024/02/10 05:06:58;;;;;;;23.30;14.00;;;;;;;9.55;100.00;97919.05;178643;1254;46121;-85
2024/02/10 05:11:01;;;;;;;17.90;13.70;;;;;;;9.56;100.00;97922.75;178303;1254;46023;-87
2024/02/10 05:15:09;;;;;;;14.80;12.10;;;;;;;9.56;100.00;97921.77;178464;1254;46119;-86
2024/02/10 05:19:14;;;;;;;20.60;13.90;;;;;;;9.58;100.00;97913.27;178103;1256;46048;-85
2024/02/10 05:23:19;;;;;;;18.30;12.30;;;;;;;9.61;100.00;97908.98;178345;1253;59514;-87
2024/02/10 05:27:23;;;;;;;19.30;13.10;;;;;;;9.57;100.00;97900.18;178496;1253;46136;-86
2024/02/10 05:31:28;;;;;;;17.20;12.50;;;;;;;9.53;100.00;97897.76;178556;1255;46102;-86
2024/02/10 05:35:32;;;;;;;19.00;14.60;;;;;;;9.41;100.00;97899.67;178909;1254;46034;-87
2024/02/10 05:39:35;;;;;;;24.20;14.40;;;;;;;9.31;100.00;97894.51;179333;1254;46096;-87
2024/02/10 05:43:39;;;;;;;19.00;13.40;;;;;;;9.24;100.00;97891.94;178511;1253;57859;-88
2024/02/10 05:47:47;;;;;;;24.30;15.00;;;;;;;9.08;100.00;97894.63;178519;1253;46092;-88
2024/02/10 05:51:50;;;;;;;28.50;14.40;;;;;;;8.98;100.00;97900.34;178674;1254;45989;-88
2024/02/10 05:55:54;;;;;;;19.40;13.50;;;;;;;8.89;100.00;97899.54;179413;1252;46992;-85
2024/02/10 05:59:57;;;;;;;23.70;16.30;;;;;;;8.81;100.00;97893.60;179633;1252;46018;-85
2024/02/10 06:04:01;;;;;;;21.10;14.50;;;;;;;8.67;100.00;97907.31;179638;1253;59355;-87
2024/02/10 06:08:10;;;;;;;26.40;16.00;;;;;;;8.57;100.00;97911.46;178317;1254;46024;-86
2024/02/10 06:12:14;;;;;;;24.10;17.60;;;;;;;8.58;100.00;97908.14;178697;1252;44340;-87
2024/02/10 06:16:21;;;;;;;26.10;15.60;;;;;;;8.62;100.00;97910.30;178917;1254;46019;-87
2024/02/10 06:20:25;;;;;;;22.90;16.50;;;;;;;8.71;100.00;97912.17;178678;1253;46450;-88
2024/02/10 06:24:33;;;;;;;22.30;16.10;;;;;;;8.78;100.00;97911.45;178722;1252;59912;-87
2024/02/10 06:28:37;;;;;;;29.80;20.00;;;;;;;8.82;100.00;97914.87;179488;1254;45980;-88
2024/02/10 06:32:43;;;;;;;20.50;14.80;;;;;;;8.80;100.00;97920.70;178906;1254;46006;-86
2024/02/10 06:36:47;;;;;;;31.20;18.60;;;;;;;8.72;100.00;97924.83;179558;1254;44549;-85
2024/02/10 06:40:51;;;;;;;22.40;15.70;;;;;;;8.76;100.00;97927.16;178647;1253;44350;-89
2024/02/10 06:44:59;;;;;;;37.60;18.90;;;;;;;8.87;100.00;97922.27;178921;1254;58667;-87
2024/02/10 06:49:02;;;;;;;26.80;18.70;;;;;;;8.97;100.00;97925.66;178413;1256;46105;-86
2024/02/10 06:53:06;;;;;;;24.10;17.00;;;;;;;9.03;100.00;97927.87;179114;1252;45944;-88
2024/02/10 06:57:11;;;;;;;26.00;15.50;;;;;;;9.04;100.00;97938.06;178676;1252;46115;-89
2024/02/10 07:01:17;;;;;;;27.70;16.30;;;;;;;9.08;100.00;97947.25;178912;1253;45967;-87
2024/02/10 07:05:22;;;;;;;26.20;16.40;;;;;;;9.13;100.00;97951.80;179502;1254;57892;-87
2024/02/10 07:09:26;;;;;;;27.30;17.60;;;;;;;9.18;100.00;97955.60;178562;1253;46114;-85
2024/02/10 07:13:31;;;;;;;27.40;19.30;;;;;;;9.20;100.00;97958.20;178760;1256;46105;-87
2024/02/10 07:17:35;;;;;;;27.00;22.90;;;;;;;9.21;100.00;97959.11;179074;1252;46039;-85
2024/02/10 07:21:39;;;;;;;34.00;29.90;;;;;;;9.27;100.00;97959.66;180148;1253;44305;-86
2024/02/10 07:25:45;;;;;;;27.70;19.80;;;;;;;9.33;100.00;97955.52;179242;1253;59605;-85
2024/02/10 07:29:50;;;;;;;30.30;21.90;;;;;;;9.36;100.00;97953.70;179473;1252;46008;-86
2024/02/10 07:33:58;;;;;;;55.80;44.20;;;;;;;9.40;100.00;97948.29;179172;1254;46204;-86
2024/02/10 07:38:02;;;;;;;31.20;18.30;;;;;;;9.45;100.00;97946.80;179825;1253;46108;-87
2024/02/10 07:42:10;;;;;;;28.20;18.80;;;;;;;9.48;100.00;97948.83;178968;1252;46532;-84
2024/02/10 07:46:16;;;;;;;26.60;16.50;;;;;;;9.53;100.00;97952.67;179045;1253;58183;-85
2024/02/10 07:50:20;;;;;;;29.00;21.50;;;;;;;9.57;100.00;97958.98;179155;1252;46094;-83
2024/02/10 07:54:24;;;;;;;24.20;18.60;;;;;;;9.64;100.00;97964.73;178436;1254;45995;-83
2024/02/10 07:58:29;;;;;;;376.70;205.70;;;;;;;9.69;100.00;97962.33;178358;1254;46118;-84
2024/02/10 08:02:32;;;;;;;69.30;56.80;;;;;;;9.78;100.00;97966.80;178376;1253;46095;-83
2024/02/10 08:06:36;;;;;;;77.30;69.00;;;;;;;9.81;100.00;97975.98;178635;1252;58655;-86
2024/02/10 08:10:40;;;;;;;48.30;39.00;;;;;;;9.86;100.00;97978.98;178649;1252;45890;-85
2024/02/10 08:14:47;;;;;;;28.80;22.10;;;;;;;9.93;100.00;97981.50;178195;1253;46210;-84
2024/02/10 08:18:50;;;;;;;26.30;22.20;;;;;;;10.00;100.00;97975.46;178000;1252;45974;-86
2024/02/10 08:22:54;;;;;;;29.00;18.50;;;;;;;10.08;100.00;97968.34;179005;1253;45585;-85
2024/02/10 08:26:58;;;;;;;20.90;14.40;;;;;;;10.16;100.00;97975.00;178277;1252;59393;-85
2024/02/10 08:31:03;;;;;;;20.20;14.40;;;;;;;10.26;100.00;97975.16;178213;1254;45980;-86
2024/02/10 08:35:06;;;;;;;27.80;16.20;;;;;;;10.34;100.00;97973.48;178621;1254;47496;-87
2024/02/10 08:39:10;;;;;;;23.20;13.90;;;;;;;10.41;100.00;97975.31;179332;1253;46047;-88
2024/02/10 08:43:13;;;;;;;19.30;14.60;;;;;;;10.50;100.00;97979.96;178937;1253;45983;-87
2024/02/10 08:47:17;;;;;;;16.90;12.20;;;;;;;10.57;100.00;97978.42;178837;1252;57521;-86
2024/02/10 08:51:24;;;;;;;17.80;12.60;;;;;;;10.63;100.00;97978.27;180048;1252;46236;-86
2024/02/10 08:55:27;;;;;;;21.90;14.70;;;;;;;10.71;100.00;97980.66;178653;1254;46096;-84
2024/02/10 08:59:31;;;;;;;17.90;13.10;;;;;;;10.80;100.00;97986.52;178851;1254;46073;-83
2024/02/10 09:03:34;;;;;;;16.40;13.10;;;;;;;10.88;100.00;97984.48;178866;1256;46185;-83
2024/02/10 09:07:37;;;;;;;15.60;12.30;;;;;;;10.97;100.00;97986.45;178402;1253;59435;-83
2024/02/10 09:11:41;;;;;;;18.20;12.10;;;;;;;11.10;100.00;97987.92;179026;1252;46095;-83
2024/02/10 09:15:44;;;;;;;16.60;12.40;;;;;;;11.25;100.00;97991.75;179236;1253;45881;-83
2024/02/10 09:19:48;;;;;;;15.80;11.80;;;;;;;11.38;100.00;97994.17;178615;1252;46172;-83
2024/02/10 09:23:51;;;;;;;20.10;15.50;;;;;;;11.50;100.00;97999.73;178587;1253;45969;-86
2024/02/10 09:27:58;;;;;;;25.20;17.30;;;;;;;11.61;100.00;98001.08;179488;1252;58493;-84
2024/02/10 09:32:02;;;;;;;20.90;14.20;;;;;;;11.72;100.00;97999.22;178161;1254;46118;-84
2024/02/10 09:36:08;;;;;;;20.90;15.90;;;;;;;11.81;100.00;98003.41;178874;1253;46044;-85
2024/02/10 09:40:12;;;;;;;14.60;11.40;;;;;;;11.94;100.00;98008.48;179110;1253;45917;-90
2024/02/10 09:44:17;;;;;;;15.60;12.90;;;;;;;12.03;100.00;98015.55;178872;1253;46024;-87
2024/02/10 09:48:21;;;;;;;16.60;12.60;;;;;;;12.10;100.00;98018.55;178574;1253;57930;-85
2024/02/10 09:52:24;;;;;;;14.20;9.80;;;;;;;12.15;100.00;98013.86;178729;1252;45958;-88
2024/02/10 09:56:28;;;;;;;15.20;10.90;;;;;;;12.20;100.00;98016.48;180061;1253;44019;-83
2024/02/10 10:00:37;;;;;;;18.60;13.60;;;;;;;12.26;100.00;98011.33;179076;1253;45983;-84
2024/02/10 10:04:42;;;;;;;15.00;9.30;;;;;;;12.31;100.00;98011.20;178682;1253;45977;-87
2024/02/10 10:08:45;;;;;;;15.30;10.60;;;;;;;12.37;100.00;98010.63;178347;1253;59284;-84
2024/02/10 10:12:49;;;;;;;15.00;9.80;;;;;;;12.40;100.00;98005.05;178675;1253;46076;-86
2024/02/10 10:17:03;;;;;;;13.50;11.40;;;;;;;12.42;100.00;97995.79;178631;1253;46081;-87
2024/02/10 10:21:10;;;;;;;11.60;8.90;;;;;;;12.37;100.00;97985.75;178715;1253;46012;-86
2024/02/10 10:25:17;;;;;;;19.30;14.60;;;;;;;12.26;100.00;97978.95;178706;1253;45954;-86
2024/02/10 10:29:21;;;;;;;366.20;268.50;;;;;;;12.21;100.00;97979.05;178805;1253;59411;-87
2024/02/10 10:33:27;;;;;;;214.60;170.10;;;;;;;12.37;100.00;97974.52;178779;1253;45964;-86
2024/02/10 10:37:32;;;;;;;597.40;444.50;;;;;;;12.55;100.00;97963.92;178688;1252;44929;-86
2024/02/10 10:41:38;;;;;;;260.80;171.70;;;;;;;12.76;100.00;97957.42;178766;1254;45994;-88
2024/02/10 10:45:42;;;;;;;;;;;;;;;12.97;100.00;97960.44;178693;1253;44100;-85
2024/02/10 10:49:46;;;;;;;49.00;34.30;;;;;;;13.15;100.00;97959.00;178455;1252;57707;-87
2024/02/10 10:53:50;;;;;;;62.80;33.30;;;;;;;13.33;100.00;97956.80;178469;1253;46214;-85
2024/02/10 10:57:55;;;;;;;16.10;11.40;;;;;;;13.45;100.00;97957.27;178803;1253;46074;-85
2024/02/10 11:01:59;;;;;;;20.70;12.80;;;;;;;13.45;100.00;97948.91;178626;1252;45929;-84
2024/02/10 11:06:11;;;;;;;183.30;116.60;;;;;;;13.47;100.00;97946.92;178621;1254;45967;-86
2024/02/10 11:10:35;;;;;;;156.80;101.20;;;;;;;13.59;100.00;97953.64;181160;1252;59092;-79
2024/02/10 11:14:54;;;;;;;59.00;33.60;;;;;;;13.81;100.00;97957.61;180192;1252;46111;-79
2024/02/10 11:19:00;;;;;;;11.70;8.50;;;;;;;13.91;100.00;97948.05;180518;1253;44282;-79
2024/02/10 11:23:13;;;;;;;;;;;;;;;13.90;100.00;97940.52;179970;1253;46197;-79
2024/02/10 11:27:17;;;;;;;6.70;5.30;;;;;;;14.11;100.00;97929.79;180236;1252;44726;-79
2024/02/10 11:31:22;;;;;;;53.60;28.70;;;;;;;14.30;100.00;97923.69;179011;1253;59866;-79
2024/02/10 11:35:25;;;;;;;11.90;6.30;;;;;;;14.46;100.00;97915.05;178259;1254;45980;-79
2024/02/10 11:39:28;;;;;;;15.00;6.40;;;;;;;14.59;100.00;97913.09;179020;1254;46028;-78
2024/02/10 11:43:33;;;;;;;6.30;4.70;;;;;;;14.66;100.00;97913.81;179177;1252;46043;-78
2024/02/10 11:47:36;;;;;;;11.20;6.00;;;;;;;14.71;100.00;97915.25;180941;1252;45976;-79
2024/02/10 11:51:40;;;;;;;41.40;22.00;;;;;;;14.74;100.00;97917.15;181282;1253;58440;-80
2024/02/10 11:55:47;;;;;;;22.40;17.00;;;;;;;14.74;100.00;97920.40;179513;1252;46579;-80
2024/02/10 11:59:51;;;;;;;8.00;4.80;;;;;;;14.76;100.00;97920.14;180896;1252;44116;-80
2024/02/10 12:04:05;;;;;;;7.30;6.50;;;;;;;14.90;100.00;97920.77;180877;1254;44368;-80
2024/02/10 12:08:09;;;;;;;8.50;6.40;;;;;;;15.00;100.00;97918.50;180471;1253;44670;-78
2024/02/10 12:12:13;;;;;;;8.40;6.00;;;;;;;15.09;100.00;97918.65;181849;1252;59866;-78
2024/02/10 12:16:17;;;;;;;17.30;7.40;;;;;;;15.18;100.00;97922.41;180670;1252;46041;-78
2024/02/10 12:20:21;;;;;;;9.80;5.40;;;;;;;15.25;100.00;97922.48;180177;1252;44770;-78
2024/02/10 12:24:25;;;;;;;10.50;7.30;;;;;;;15.29;100.00;97917.56;178312;1253;46034;-78
2024/02/10 12:28:33;;;;;;;9.50;6.90;;;;;;;15.33;100.00;97915.98;179511;1253;44145;-80
2024/02/10 12:32:37;;;;;;;16.50;10.60;;;;;;;15.39;100.00;97909.02;179065;1254;58229;-80
2024/02/10 12:36:40;;;;;;;14.40;8.00;;;;;;;15.34;100.00;97909.39;179473;1252;44022;-80
2024/02/10 12:40:43;;;;;;;13.10;6.70;;;;;;;15.41;100.00;97909.79;179415;1256;46099;-80
2024/02/10 12:44:47;;;;;;;8.50;6.20;;;;;;;15.39;100.00;97909.68;181588;1253;44000;-80
2024/02/10 12:48:50;;;;;;;9.60;6.40;;;;;;;15.37;100.00;97907.73;179637;1252;46104;-80
2024/02/10 12:52:54;;;;;;;21.70;7.60;;;;;;;15.36;100.00;97903.77;180490;1253;173299;-80
2024/02/10 12:56:57;;;;;;;8.30;5.70;;;;;;;15.34;100.00;97901.10;180912;1253;45993;-80
2024/02/10 13:01:00;;;;;;;7.40;5.30;;;;;;;15.33;100.00;97900.65;180608;1251;46000;-80
2024/02/10 13:05:04;;;;;;;19.80;12.70;;;;;;;15.37;100.00;97902.36;181009;1252;46082;-81
2024/02/10 13:09:08;;;;;;;14.40;10.80;;;;;;;15.37;100.00;97902.52;179329;1252;46127;-80
2024/02/10 13:13:11;;;;;;;11.70;8.80;;;;;;;15.37;100.00;97896.48;178842;1253;59594;-80
2024/02/10 13:17:14;;;;;;;10.30;7.10;;;;;;;15.37;100.00;97891.02;179212;1254;46126;-80
2024/02/10 13:21:19;;;;;;;13.50;9.00;;;;;;;15.36;100.00;97885.80;178389;1252;46091;-80
2024/02/10 13:25:23;;;;;;;11.70;8.30;;;;;;;15.37;100.00;97882.13;179105;1254;45997;-80
2024/02/10 13:29:29;;;;;;;15.40;9.50;;;;;;;15.35;100.00;97882.80;179287;1253;46009;-80
2024/02/10 13:33:32;;;;;;;8.90;6.60;;;;;;;15.27;100.00;97884.37;179452;1254;57873;-80
2024/02/10 14:03:34;;;;;;;12.60;8.90;;;;;;;14.87;100.00;97868.55;178037;1253;45993;-80
2024/02/10 14:12:09;;;;;;;10.20;8.90;;;;;;;14.76;100.00;97870.63;179683;1254;43786;-80
2024/02/10 14:16:25;;;;;;;13.10;8.70;;;;;;;14.68;100.00;97876.17;180055;1251;58343;-80
2024/02/10 14:20:33;;;;;;;14.80;9.40;;;;;;;14.62;100.00;97872.50;179894;1252;45971;-79
2024/02/10 14:24:37;;;;;;;15.00;10.40;;;;;;;14.54;100.00;97873.19;179404;1252;46150;-79
2024/02/10 14:33:13;;;;;;;11.80;9.70;;;;;;;14.41;100.00;97873.09;178506;1252;46112;-80
2024/02/10 14:37:41;;;;;;;13.40;10.80;;;;;;;14.38;100.00;97870.36;178659;1252;59505;-79
2024/02/10 14:41:45;;;;;;;11.50;9.80;;;;;;;14.32;100.00;97866.62;180346;1252;44027;-80
2024/02/10 14:45:50;;;;;;;10.90;8.50;;;;;;;14.26;100.00;97866.77;179249;1253;46117;-80
2024/02/10 14:49:53;;;;;;;12.90;8.60;;;;;;;14.16;100.00;97863.81;177994;1253;46108;-79
2024/02/10 14:53:56;;;;;;;16.00;9.60;;;;;;;14.10;100.00;97868.02;179351;1252;46093;-79
2024/02/10 14:57:59;;;;;;;18.00;10.30;;;;;;;14.02;100.00;97869.44;179071;1253;59246;-80
2024/02/10 15:02:03;;;;;;;12.20;10.00;;;;;;;13.96;100.00;97871.66;180473;1254;45962;-79
2024/02/10 15:06:15;;;;;;;17.90;12.20;;;;;;;13.92;100.00;97877.16;179295;1256;46022;-80
2024/02/10 15:10:18;;;;;;;18.80;14.00;;;;;;;13.83;100.00;97881.00;178722;1253;44534;-79
2024/02/10 15:14:21;;;;;;;14.80;9.40;;;;;;;13.70;100.00;97882.02;180020;1255;46146;-80
2024/02/10 15:18:26;;;;;;;11.20;9.00;;;;;;;13.59;100.00;97879.98;178469;1254;58724;-79
2024/02/10 15:22:29;;;;;;;10.80;8.10;;;;;;;13.51;100.00;97882.83;178977;1252;44144;-79
2024/02/10 15:26:32;;;;;;;15.90;11.60;;;;;;;13.40;100.00;97878.00;179639;1253;46133;-80
2024/02/10 15:30:35;;;;;;;14.40;11.80;;;;;;;13.32;100.00;97875.92;179013;1253;46044;-80
2024/02/10 15:34:38;;;;;;;19.00;12.00;;;;;;;13.22;100.00;97876.69;179508;1254;45986;-79
2024/02/10 15:39:04;;;;;;;23.90;13.70;;;;;;;13.16;100.00;97876.91;178876;1254;57223;-79
2024/02/10 15:43:08;;;;;;;18.70;14.70;;;;;;;13.08;100.00;97877.34;179031;1253;46032;-79
2024/02/10 15:47:13;;;;;;;25.00;15.20;;;;;;;13.03;100.00;97885.58;178618;1254;46229;-80
2024/02/10 15:51:16;;;;;;;19.30;15.80;;;;;;;12.98;100.00;97888.85;177205;1252;45934;-79
2024/02/10 15:55:19;;;;;;;30.20;17.70;;;;;;;12.90;100.00;97894.36;178300;1253;46070;-80
2024/02/10 15:59:22;;;;;;;28.30;18.10;;;;;;;12.84;100.00;97888.80;177916;1253;58279;-80
2024/02/10 16:03:26;;;;;;;26.60;18.70;;;;;;;12.80;100.00;97891.25;178503;1256;46118;-79
2024/02/10 16:07:29;;;;;;;22.00;16.70;;;;;;;12.77;100.00;97895.80;179823;1253;45954;-79
2024/02/10 16:11:33;;;;;;;27.90;16.40;;;;;;;12.73;100.00;97891.63;178954;1254;46092;-80
2024/02/10 16:15:37;;;;;;;22.00;17.20;;;;;;;12.72;100.00;97897.75;178816;1253;46084;-80
2024/02/10 16:19:41;;;;;;;26.70;17.50;;;;;;;12.68;100.00;97897.81;178564;1253;59637;-80
2024/02/10 16:23:50;;;;;;;25.80;17.10;;;;;;;12.60;100.00;97900.98;180610;1252;45952;-80
2024/02/10 16:27:56;;;;;;;22.70;16.70;;;;;;;12.57;100.00;97897.95;179932;1254;46089;-80
2024/02/10 16:31:59;;;;;;;;;;;;;;;12.52;100.00;97901.20;178933;1253;45980;-80
2024/02/10 16:36:02;;;;;;;25.40;16.60;;;;;;;12.48;100.00;97898.92;179088;1253;46025;-80
2024/02/10 16:40:09;;;;;;;23.30;15.60;;;;;;;12.44;100.00;97899.53;179661;1256;60159;-79
2024/02/10 16:44:12;;;;;;;31.10;16.50;;;;;;;12.38;100.00;97900.98;178326;1256;46256;-80
2024/02/10 16:48:16;;;;;;;29.00;19.20;;;;;;;12.33;100.00;97903.85;178054;1253;46048;-80
2024/02/10 16:52:21;;;;;;;23.30;17.50;;;;;;;12.26;100.00;97913.61;178243;1254;46055;-80
2024/02/10 16:56:24;;;;;;;31.40;22.60;;;;;;;12.22;100.00;97925.85;177845;1253;46044;-80
2024/02/10 17:00:27;;;;;;;52.20;31.00;;;;;;;12.20;100.00;97926.75;179573;1253;57565;-81
2024/02/10 17:04:30;;;;;;;50.10;30.40;;;;;;;12.19;100.00;97921.04;178645;1253;44367;-81
2024/02/10 17:08:35;;;;;;;56.60;36.10;;;;;;;12.24;100.00;97927.25;177622;1253;46559;-81
2024/02/10 17:12:38;;;;;;;57.00;35.40;;;;;;;12.27;100.00;97935.77;178050;1253;45981;-81
2024/02/10 17:16:42;;;;;;;50.40;32.60;;;;;;;12.30;100.00;97939.85;178045;1253;46009;-80
2024/02/10 17:20:52;;;;;;;41.40;29.50;;;;;;;12.32;100.00;97942.48;178816;1253;60407;-81
2024/02/10 17:24:55;;;;;;;30.90;24.20;;;;;;;12.33;100.00;97934.73;179349;1253;45999;-80
2024/02/10 17:29:01;;;;;;;33.80;24.70;;;;;;;12.33;100.00;97928.63;179153;1253;46053;-80
2024/02/10 17:33:06;;;;;;;28.90;21.60;;;;;;;12.33;100.00;97925.02;178513;1253;46102;-80
2024/02/10 17:37:09;;;;;;;31.90;22.10;;;;;;;12.32;100.00;97924.96;178660;1254;46003;-80
2024/02/10 17:41:12;;;;;;;30.00;19.30;;;;;;;12.28;100.00;97923.02;179779;1254;58201;-80
2024/02/10 17:50:00;;;;;;;27.50;18.80;;;;;;;12.21;100.00;97917.36;169169;1254;45878;-60
2024/02/10 17:54:08;;;;;;;32.70;21.70;;;;;;;12.15;100.00;97913.70;180712;1254;46031;-60
2024/02/10 17:58:39;;;;;;;36.70;24.30;;;;;;;12.13;100.00;97911.73;180925;1254;44372;-61
2024/02/10 18:02:47;;;;;;;30.60;22.30;;;;;;;12.06;100.00;97905.55;180724;1254;59299;-61
2024/02/10 18:06:53;;;;;;;32.10;22.50;;;;;;;11.99;100.00;97902.99;180485;1254;45979;-60
2024/02/10 18:10:57;;;;;;;34.30;23.80;;;;;;;11.94;100.00;97909.38;180803;1254;44298;-60
2024/02/10 18:15:02;;;;;;;29.80;21.90;;;;;;;11.84;100.00;97910.00;180567;1259;45977;-60
2024/02/10 18:19:07;;;;;;;27.00;19.50;;;;;;;11.76;100.00;97911.58;180472;1256;45173;-60
2024/02/10 18:23:11;;;;;;;35.60;21.10;;;;;;;11.67;100.00;97908.63;180542;1254;58956;-60
2024/02/10 18:27:17;;;;;;;28.00;21.10;;;;;;;11.63;100.00;97906.64;180695;1254;44694;-60
2024/02/10 18:31:21;;;;;;;26.00;17.60;;;;;;;11.61;100.00;97905.14;180701;1254;45343;-61
2024/02/10 18:35:24;;;;;;;27.20;18.60;;;;;;;11.63;100.00;97913.67;180623;1254;45852;-61
2024/02/10 18:39:27;;;;;;;26.60;18.50;;;;;;;11.62;100.00;97911.70;180768;1254;43756;-60
2024/02/10 18:43:31;;;;;;;24.70;19.10;;;;;;;11.57;100.00;97909.31;180609;1254;60749;-60
2024/02/10 18:47:34;;;;;;;27.10;19.30;;;;;;;11.50;100.00;97914.77;180623;1254;44974;-60
2024/02/10 18:51:42;;;;;;;24.60;18.30;;;;;;;11.38;100.00;97909.74;180897;1254;44676;-60
2024/02/10 18:55:47;;;;;;;26.40;17.80;;;;;;;11.30;100.00;97905.10;180629;1254;44228;-60
2024/02/10 18:59:51;;;;;;;27.30;19.00;;;;;;;11.28;100.00;97910.67;180611;1254;43946;-60
2024/02/10 19:03:55;;;;;;;29.60;19.70;;;;;;;11.21;100.00;97911.35;180650;1254;58456;-60
2024/02/10 19:08:02;;;;;;;26.10;18.10;;;;;;;11.18;100.00;97902.17;180600;1254;43587;-60